sensor_id;sensor_type;location;lat;lon;timestamp;pressure;altitude;pressure_sealevel;temperature;humidity
64675;BME280;51090;51.512;11.332;2024-03-08T00:02:15;99904.16;;;0.86;80.05
64675;BME280;51090;51.512;11.332;2024-03-08T00:04:41;99893.22;;;0.81;80.32
64675;BME280;51090;51.512;11.332;2024-03-08T00:07:08;99900.56;;;0.76;80.15
64675;BME280;51090;51.512;11.332;2024-03-08T00:09:34;99899.72;;;0.76;79.89
64675;BME280;51090;51.512;11.332;2024-03-08T00:12:00;99903.31;;;0.75;80.06
64675;BME280;51090;51.512;11.332;2024-03-08T00:14:26;99901.13;;;0.69;80.53
64675;BME280;51090;51.512;11.332;2024-03-08T00:16:52;99902.16;;;0.66;82.04
64675;BME280;51090;51.512;11.332;2024-03-08T00:19:20;99898.72;;;0.65;81.28
64675;BME280;51090;51.512;11.332;2024-03-08T00:21:46;99891.94;;;0.63;80.92
64675;BME280;51090;51.512;11.332;2024-03-08T00:24:12;99884.94;;;0.63;80.66
64675;BME280;51090;51.512;11.332;2024-03-08T00:26:38;99892.78;;;0.63;80.53
64675;BME280;51090;51.512;11.332;2024-03-08T00:29:04;99898.00;;;0.63;80.26
64675;BME280;51090;51.512;11.332;2024-03-08T00:31:30;99896.56;;;0.59;80.20
64675;BME280;51090;51.512;11.332;2024-03-08T00:33:59;99889.66;;;0.58;80.44
64675;BME280;51090;51.512;11.332;2024-03-08T00:36:25;99897.00;;;0.53;80.40
64675;BME280;51090;51.512;11.332;2024-03-08T00:38:52;99894.50;;;0.52;80.35
64675;BME280;51090;51.512;11.332;2024-03-08T00:41:18;99892.81;;;0.51;80.53
64675;BME280;51090;51.512;11.332;2024-03-08T00:43:44;99888.56;;;0.50;80.39
64675;BME280;51090;51.512;11.332;2024-03-08T00:46:13;99894.69;;;0.49;80.04
64675;BME280;51090;51.512;11.332;2024-03-08T00:48:40;99888.66;;;0.48;80.14
64675;BME280;51090;51.512;11.332;2024-03-08T00:51:09;99883.56;;;0.47;80.17
64675;BME280;51090;51.512;11.332;2024-03-08T00:53:35;99884.50;;;0.46;80.22
64675;BME280;51090;51.512;11.332;2024-03-08T00:56:01;99885.66;;;0.41;80.45
64675;BME280;51090;51.512;11.332;2024-03-08T00:58:27;99877.22;;;0.38;80.79
64675;BME280;51090;51.512;11.332;2024-03-08T01:00:54;99879.00;;;0.37;82.76
64675;BME280;51090;51.512;11.332;2024-03-08T01:03:20;99875.56;;;0.37;82.75
64675;BME280;51090;51.512;11.332;2024-03-08T01:05:46;99873.03;;;0.35;81.84
64675;BME280;51090;51.512;11.332;2024-03-08T01:08:12;99868.78;;;0.34;83.33
64675;BME280;51090;51.512;11.332;2024-03-08T01:10:38;99858.56;;;0.31;84.52
64675;BME280;51090;51.512;11.332;2024-03-08T01:13:04;99864.09;;;0.27;84.50
64675;BME280;51090;51.512;11.332;2024-03-08T01:15:30;99857.31;;;0.24;83.34
64675;BME280;51090;51.512;11.332;2024-03-08T01:17:57;99858.38;;;0.21;82.71
64675;BME280;51090;51.512;11.332;2024-03-08T01:20:23;99859.28;;;0.20;84.96
64675;BME280;51090;51.512;11.332;2024-03-08T01:22:49;99851.59;;;0.19;84.02
64675;BME280;51090;51.512;11.332;2024-03-08T01:25:15;99851.81;;;0.16;82.86
64675;BME280;51090;51.512;11.332;2024-03-08T01:27:41;99840.75;;;0.12;83.69
64675;BME280;51090;51.512;11.332;2024-03-08T01:30:07;99838.97;;;0.13;83.74
64675;BME280;51090;51.512;11.332;2024-03-08T01:32:35;99836.50;;;0.11;84.03
64675;BME280;51090;51.512;11.332;2024-03-08T01:35:01;99835.53;;;0.12;83.05
64675;BME280;51090;51.512;11.332;2024-03-08T01:37:28;99827.72;;;0.12;82.72
64675;BME280;51090;51.512;11.332;2024-03-08T01:39:55;99826.88;;;0.12;82.48
64675;BME280;51090;51.512;11.332;2024-03-08T01:42:21;99827.72;;;0.12;82.42
64675;BME280;51090;51.512;11.332;2024-03-08T01:44:48;99818.25;;;0.11;82.36
64675;BME280;51090;51.512;11.332;2024-03-08T01:47:14;99813.03;;;0.11;82.37
64675;BME280;51090;51.512;11.332;2024-03-08T01:49:40;99813.75;;;0.13;82.59
64675;BME280;51090;51.512;11.332;2024-03-08T01:52:06;99809.47;;;0.12;82.33
64675;BME280;51090;51.512;11.332;2024-03-08T01:54:33;99808.53;;;0.13;82.77
64675;BME280;51090;51.512;11.332;2024-03-08T01:57:00;99805.06;;;0.13;82.60
64675;BME280;51090;51.512;11.332;2024-03-08T01:59:27;99806.97;;;0.11;82.37
64675;BME280;51090;51.512;11.332;2024-03-08T02:02:01;99805.19;;;0.11;82.57
64675;BME280;51090;51.512;11.332;2024-03-08T02:04:29;99800.91;;;0.10;82.86
64675;BME280;51090;51.512;11.332;2024-03-08T02:06:56;99800.06;;;0.10;83.04
64675;BME280;51090;51.512;11.332;2024-03-08T02:09:24;99806.97;;;0.11;83.17
64675;BME280;51090;51.512;11.332;2024-03-08T02:11:51;99803.50;;;0.10;83.48
64675;BME280;51090;51.512;11.332;2024-03-08T02:14:17;99798.31;;;0.10;83.21
64675;BME280;51090;51.512;11.332;2024-03-08T02:16:44;99803.50;;;0.10;83.59
64675;BME280;51090;51.512;11.332;2024-03-08T02:19:10;99792.03;;;0.13;86.62
64675;BME280;51090;51.512;11.332;2024-03-08T02:21:37;99784.72;;;0.18;86.04
64675;BME280;51090;51.512;11.332;2024-03-08T02:24:04;99794.81;;;0.22;85.67
64675;BME280;51090;51.512;11.332;2024-03-08T02:26:30;99791.16;;;0.25;86.22
64675;BME280;51090;51.512;11.332;2024-03-08T02:28:56;99783.97;;;0.29;87.77
64675;BME280;51090;51.512;11.332;2024-03-08T02:31:22;99788.97;;;0.32;87.38
64675;BME280;51090;51.512;11.332;2024-03-08T02:33:48;99786.13;;;0.35;86.73
64675;BME280;51090;51.512;11.332;2024-03-08T02:36:14;99782.69;;;0.34;87.37
64675;BME280;51090;51.512;11.332;2024-03-08T02:38:42;99780.69;;;0.38;86.95
64675;BME280;51090;51.512;11.332;2024-03-08T02:41:08;99781.41;;;0.40;86.71
64675;BME280;51090;51.512;11.332;2024-03-08T02:43:35;99784.84;;;0.40;85.97
64675;BME280;51090;51.512;11.332;2024-03-08T02:46:01;99781.31;;;0.41;86.17
64675;BME280;51090;51.512;11.332;2024-03-08T02:48:27;99785.56;;;0.42;87.85
64675;BME280;51090;51.512;11.332;2024-03-08T02:50:53;99779.63;;;0.40;86.53
64675;BME280;51090;51.512;11.332;2024-03-08T02:53:19;99773.56;;;0.40;87.59
64675;BME280;51090;51.512;11.332;2024-03-08T02:55:45;99779.84;;;0.37;87.56
64675;BME280;51090;51.512;11.332;2024-03-08T02:58:12;99772.13;;;0.36;87.47
64675;BME280;51090;51.512;11.332;2024-03-08T03:00:40;99772.25;;;0.34;87.33
64675;BME280;51090;51.512;11.332;2024-03-08T03:03:07;99773.31;;;0.32;86.88
64675;BME280;51090;51.512;11.332;2024-03-08T03:05:33;99770.06;;;0.28;86.51
64675;BME280;51090;51.512;11.332;2024-03-08T03:07:59;99768.50;;;0.26;85.89
64675;BME280;51090;51.512;11.332;2024-03-08T03:10:26;99769.56;;;0.23;85.20
64675;BME280;51090;51.512;11.332;2024-03-08T03:12:52;99775.00;;;0.20;86.25
64675;BME280;51090;51.512;11.332;2024-03-08T03:15:18;99767.63;;;0.14;86.41
64675;BME280;51090;51.512;11.332;2024-03-08T03:17:48;99765.34;;;0.09;86.25
64675;BME280;51090;51.512;11.332;2024-03-08T03:20:17;99757.03;;;0.04;85.79
64675;BME280;51090;51.512;11.332;2024-03-08T03:22:50;99760.69;;;0.02;86.03
64675;BME280;51090;51.512;11.332;2024-03-08T03:25:22;99756.28;;;0.02;86.22
64675;BME280;51090;51.512;11.332;2024-03-08T03:27:54;99760.47;;;0.05;87.49
64675;BME280;51090;51.512;11.332;2024-03-08T03:30:24;99751.59;;;0.07;87.45
64675;BME280;51090;51.512;11.332;2024-03-08T03:32:52;99749.94;;;0.06;87.29
64675;BME280;51090;51.512;11.332;2024-03-08T03:35:20;99749.94;;;0.06;86.71
64675;BME280;51090;51.512;11.332;2024-03-08T03:37:47;99747.56;;;0.03;86.96
64675;BME280;51090;51.512;11.332;2024-03-08T03:40:33;99744.00;;;0.04;86.86
64675;BME280;51090;51.512;11.332;2024-03-08T03:43:00;99745.63;;;0.05;87.38
64675;BME280;51090;51.512;11.332;2024-03-08T03:45:27;99743.88;;;0.06;88.14
64675;BME280;51090;51.512;11.332;2024-03-08T03:47:53;99749.09;;;0.06;87.41
64675;BME280;51090;51.512;11.332;2024-03-08T03:50:19;99742.56;;;0.00;86.83
64675;BME280;51090;51.512;11.332;2024-03-08T03:52:46;99740.28;;;-0.05;87.18
64675;BME280;51090;51.512;11.332;2024-03-08T03:55:13;99747.38;;;-0.07;86.25
64675;BME280;51090;51.512;11.332;2024-03-08T03:57:40;99738.94;;;-0.10;86.05
64675;BME280;51090;51.512;11.332;2024-03-08T04:00:07;99749.56;;;-0.13;86.34
64675;BME280;51090;51.512;11.332;2024-03-08T04:02:39;99752.19;;;-0.13;86.87
64675;BME280;51090;51.512;11.332;2024-03-08T04:05:07;99741.88;;;-0.15;86.55
64675;BME280;51090;51.512;11.332;2024-03-08T04:07:34;99745.41;;;-0.16;86.42
64675;BME280;51090;51.512;11.332;2024-03-08T04:10:03;99743.66;;;-0.15;87.41
64675;BME280;51090;51.512;11.332;2024-03-08T04:12:29;99752.41;;;-0.16;87.95
64675;BME280;51090;51.512;11.332;2024-03-08T04:14:56;99744.72;;;-0.18;87.88
64675;BME280;51090;51.512;11.332;2024-03-08T04:17:22;99736.75;;;-0.16;89.42
64675;BME280;51090;51.512;11.332;2024-03-08T04:19:50;99748.00;;;-0.16;88.94
64675;BME280;51090;51.512;11.332;2024-03-08T04:22:16;99741.16;;;-0.17;88.58
64675;BME280;51090;51.512;11.332;2024-03-08T04:24:43;99744.72;;;-0.18;87.78
64675;BME280;51090;51.512;11.332;2024-03-08T04:27:09;99749.91;;;-0.18;90.27
64675;BME280;51090;51.512;11.332;2024-03-08T04:29:35;99748.00;;;-0.16;89.30
64675;BME280;51090;51.512;11.332;2024-03-08T04:32:04;99740.19;;;-0.16;88.40
64675;BME280;51090;51.512;11.332;2024-03-08T04:34:31;99736.25;;;-0.22;87.38
64675;BME280;51090;51.512;11.332;2024-03-08T04:37:00;99732.91;;;-0.24;89.46
64675;BME280;51090;51.512;11.332;2024-03-08T04:39:27;99729.47;;;-0.24;89.85
64675;BME280;51090;51.512;11.332;2024-03-08T04:41:55;99731.25;;;-0.25;87.82
64675;BME280;51090;51.512;11.332;2024-03-08T04:44:23;99729.59;;;-0.26;86.93
64675;BME280;51090;51.512;11.332;2024-03-08T04:46:50;99721.06;;;-0.28;87.21
64675;BME280;51090;51.512;11.332;2024-03-08T04:49:16;99726.28;;;-0.28;88.01
64675;BME280;51090;51.512;11.332;2024-03-08T04:51:42;99729.69;;;-0.27;89.07
64675;BME280;51090;51.512;11.332;2024-03-08T04:54:08;99726.06;;;-0.25;89.68
64675;BME280;51090;51.512;11.332;2024-03-08T04:56:35;99728.34;;;-0.20;89.38
64675;BME280;51090;51.512;11.332;2024-03-08T04:59:02;99722.16;;;-0.19;89.29
64675;BME280;51090;51.512;11.332;2024-03-08T05:01:28;99727.38;;;-0.19;89.94
64675;BME280;51090;51.512;11.332;2024-03-08T05:03:54;99731.66;;;-0.18;89.68
64675;BME280;51090;51.512;11.332;2024-03-08T05:06:21;99728.22;;;-0.18;89.95
64675;BME280;51090;51.512;11.332;2024-03-08T05:08:47;99723.13;;;-0.20;89.63
64675;BME280;51090;51.512;11.332;2024-03-08T05:11:13;99722.50;;;-0.24;88.28
64675;BME280;51090;51.512;11.332;2024-03-08T05:13:40;99718.31;;;-0.26;90.38
64675;BME280;51090;51.512;11.332;2024-03-08T05:16:07;99717.63;;;-0.28;88.93
64675;BME280;51090;51.512;11.332;2024-03-08T05:18:33;99710.84;;;-0.31;89.70
64675;BME280;51090;51.512;11.332;2024-03-08T05:21:00;99715.44;;;-0.34;90.19
64675;BME280;51090;51.512;11.332;2024-03-08T05:23:30;99715.66;;;-0.37;89.71
64675;BME280;51090;51.512;11.332;2024-03-08T05:25:56;99720.38;;;-0.42;89.35
64675;BME280;51090;51.512;11.332;2024-03-08T05:28:22;99717.84;;;-0.44;91.11
64675;BME280;51090;51.512;11.332;2024-03-08T05:30:49;99716.94;;;-0.43;93.95
64675;BME280;51090;51.512;11.332;2024-03-08T05:33:15;99715.16;;;-0.42;91.00
64675;BME280;51090;51.512;11.332;2024-03-08T05:35:41;99723.69;;;-0.40;89.95
64675;BME280;51090;51.512;11.332;2024-03-08T05:38:07;99715.88;;;-0.40;90.25
64675;BME280;51090;51.512;11.332;2024-03-08T05:40:33;99715.88;;;-0.40;90.68
64675;BME280;51090;51.512;11.332;2024-03-08T05:42:59;99710.53;;;-0.39;90.10
64675;BME280;51090;51.512;11.332;2024-03-08T05:45:25;99704.41;;;-0.38;89.46
64675;BME280;51090;51.512;11.332;2024-03-08T05:47:52;99707.00;;;-0.38;90.63
64675;BME280;51090;51.512;11.332;2024-03-08T05:50:18;99704.19;;;-0.35;90.54
64675;BME280;51090;51.512;11.332;2024-03-08T05:52:45;99704.09;;;-0.33;90.67
64675;BME280;51090;51.512;11.332;2024-03-08T05:55:13;99708.13;;;-0.29;92.30
64675;BME280;51090;51.512;11.332;2024-03-08T05:57:41;99712.06;;;-0.24;90.60
64675;BME280;51090;51.512;11.332;2024-03-08T06:00:08;99712.56;;;-0.18;92.35
64675;BME280;51090;51.512;11.332;2024-03-08T06:02:38;99712.97;;;-0.12;93.13
64675;BME280;51090;51.512;11.332;2024-03-08T06:05:08;99711.47;;;-0.03;93.74
64675;BME280;51090;51.512;11.332;2024-03-08T06:07:34;99702.16;;;0.06;93.02
64675;BME280;51090;51.512;11.332;2024-03-08T06:10:00;99699.00;;;0.13;94.97
64675;BME280;51090;51.512;11.332;2024-03-08T06:12:26;99706.28;;;0.21;94.23
64675;BME280;51090;51.512;11.332;2024-03-08T06:14:54;99711.63;;;0.31;94.38
64675;BME280;51090;51.512;11.332;2024-03-08T06:17:21;99704.78;;;0.41;94.27
64675;BME280;51090;51.512;11.332;2024-03-08T06:19:51;99702.47;;;0.49;93.57
64675;BME280;51090;51.512;11.332;2024-03-08T06:22:18;99702.81;;;0.56;93.32
64675;BME280;51090;51.512;11.332;2024-03-08T06:24:45;99700.69;;;0.61;93.13
64675;BME280;51090;51.512;11.332;2024-03-08T06:27:12;99694.91;;;0.69;93.41
64675;BME280;51090;51.512;11.332;2024-03-08T06:29:39;99702.16;;;0.76;92.64
64675;BME280;51090;51.512;11.332;2024-03-08T06:32:06;99693.75;;;0.84;94.44
64675;BME280;51090;51.512;11.332;2024-03-08T06:34:35;99693.88;;;0.94;93.54
64675;BME280;51090;51.512;11.332;2024-03-08T06:37:01;99697.56;;;1.02;93.40
64675;BME280;51090;51.512;11.332;2024-03-08T06:39:27;99689.13;;;1.10;93.74
64675;BME280;51090;51.512;11.332;2024-03-08T06:41:57;99696.16;;;1.21;93.10
64675;BME280;51090;51.512;11.332;2024-03-08T06:44:23;99690.34;;;1.28;93.09
64675;BME280;51090;51.512;11.332;2024-03-08T06:46:49;99698.41;;;1.37;92.15
64675;BME280;51090;51.512;11.332;2024-03-08T06:49:15;99690.81;;;1.45;92.77
64675;BME280;51090;51.512;11.332;2024-03-08T06:51:42;99693.66;;;1.53;92.22
64675;BME280;51090;51.512;11.332;2024-03-08T06:54:08;99689.47;;;1.62;91.71
64675;BME280;51090;51.512;11.332;2024-03-08T06:56:37;99692.44;;;1.68;91.45
64675;BME280;51090;51.512;11.332;2024-03-08T06:59:03;99688.63;;;1.72;92.40
64675;BME280;51090;51.512;11.332;2024-03-08T07:01:30;99690.50;;;1.82;91.25
64675;BME280;51090;51.512;11.332;2024-03-08T07:04:00;99681.22;;;1.89;91.29
64675;BME280;51090;51.512;11.332;2024-03-08T07:06:31;99685.94;;;1.95;91.35
64675;BME280;51090;51.512;11.332;2024-03-08T07:08:59;99687.00;;;2.04;90.85
64675;BME280;51090;51.512;11.332;2024-03-08T07:11:25;99689.94;;;2.10;91.03
64675;BME280;51090;51.512;11.332;2024-03-08T07:13:51;99679.69;;;2.18;91.62
64675;BME280;51090;51.512;11.332;2024-03-08T07:16:17;99687.59;;;2.28;90.57
64675;BME280;51090;51.512;11.332;2024-03-08T07:18:43;99686.97;;;2.36;90.18
64675;BME280;51090;51.512;11.332;2024-03-08T07:21:12;99688.03;;;2.45;89.77
64675;BME280;51090;51.512;11.332;2024-03-08T07:23:38;99682.97;;;2.53;89.33
64675;BME280;51090;51.512;11.332;2024-03-08T07:26:28;99685.78;;;2.61;89.22
64675;BME280;51090;51.512;11.332;2024-03-08T07:28:56;99693.81;;;2.69;88.96
64675;BME280;51090;51.512;11.332;2024-03-08T07:31:22;99686.31;;;2.76;88.51
64675;BME280;51090;51.512;11.332;2024-03-08T07:33:51;99678.06;;;2.80;88.08
64675;BME280;51090;51.512;11.332;2024-03-08T07:36:19;99681.81;;;2.88;88.01
64675;BME280;51090;51.512;11.332;2024-03-08T07:38:45;99674.25;;;2.94;87.62
64675;BME280;51090;51.512;11.332;2024-03-08T07:41:13;99671.81;;;3.02;87.35
64675;BME280;51090;51.512;11.332;2024-03-08T07:43:39;99674.59;;;3.11;87.03
64675;BME280;51090;51.512;11.332;2024-03-08T07:46:05;99667.19;;;3.16;86.83
64675;BME280;51090;51.512;11.332;2024-03-08T07:48:31;99667.38;;;3.24;86.87
64675;BME280;51090;51.512;11.332;2024-03-08T07:50:57;99668.38;;;3.33;86.79
64675;BME280;51090;51.512;11.332;2024-03-08T07:53:23;99664.38;;;3.38;86.71
64675;BME280;51090;51.512;11.332;2024-03-08T07:55:52;99667.84;;;3.48;86.56
64675;BME280;51090;51.512;11.332;2024-03-08T07:58:18;99661.13;;;3.56;86.45
64675;BME280;51090;51.512;11.332;2024-03-08T08:00:45;99658.22;;;3.59;85.75
64675;BME280;51090;51.512;11.332;2024-03-08T08:03:12;99663.06;;;3.63;85.65
64675;BME280;51090;51.512;11.332;2024-03-08T08:05:38;99660.16;;;3.66;85.37
64675;BME280;51090;51.512;11.332;2024-03-08T08:08:13;99654.41;;;3.73;85.22
64675;BME280;51090;51.512;11.332;2024-03-08T08:10:40;99660.19;;;3.76;84.60
64675;BME280;51090;51.512;11.332;2024-03-08T08:13:06;99655.50;;;3.80;84.90
64675;BME280;51090;51.512;11.332;2024-03-08T08:15:32;99655.09;;;3.84;84.64
64675;BME280;51090;51.512;11.332;2024-03-08T08:18:01;99654.81;;;3.87;84.47
64675;BME280;51090;51.512;11.332;2024-03-08T08:20:31;99656.22;;;3.91;84.37
64675;BME280;51090;51.512;11.332;2024-03-08T08:22:57;99650.69;;;3.95;84.53
64675;BME280;51090;51.512;11.332;2024-03-08T08:25:25;99656.34;;;4.00;84.36
64675;BME280;51090;51.512;11.332;2024-03-08T08:27:51;99658.00;;;4.01;83.84
64675;BME280;51090;51.512;11.332;2024-03-08T08:30:18;99657.88;;;4.02;84.24
64675;BME280;51090;51.512;11.332;2024-03-08T08:32:44;99656.78;;;4.05;84.20
64675;BME280;51090;51.512;11.332;2024-03-08T08:35:12;99657.19;;;4.10;84.31
64675;BME280;51090;51.512;11.332;2024-03-08T08:37:39;99648.75;;;4.16;84.43
64675;BME280;51090;51.512;11.332;2024-03-08T08:40:05;99648.50;;;4.19;83.97
64675;BME280;51090;51.512;11.332;2024-03-08T08:42:36;99641.69;;;4.26;84.10
64675;BME280;51090;51.512;11.332;2024-03-08T08:45:04;99641.28;;;4.31;84.03
64675;BME280;51090;51.512;11.332;2024-03-08T08:47:37;99633.69;;;4.38;83.73
64675;BME280;51090;51.512;11.332;2024-03-08T08:50:04;99636.84;;;4.41;83.51
64675;BME280;51090;51.512;11.332;2024-03-08T08:52:31;99634.78;;;4.45;83.34
64675;BME280;51090;51.512;11.332;2024-03-08T08:54:57;99630.78;;;4.50;83.29
64675;BME280;51090;51.512;11.332;2024-03-08T08:57:24;99630.34;;;4.55;82.89
64675;BME280;51090;51.512;11.332;2024-03-08T08:59:50;99628.94;;;4.61;82.85
64675;BME280;51090;51.512;11.332;2024-03-08T09:02:16;99623.41;;;4.64;82.50
64675;BME280;51090;51.512;11.332;2024-03-08T09:04:43;99626.03;;;4.73;82.89
64675;BME280;51090;51.512;11.332;2024-03-08T09:07:10;99621.28;;;4.77;81.85
64675;BME280;51090;51.512;11.332;2024-03-08T09:09:36;99626.94;;;4.82;82.21
64675;BME280;51090;51.512;11.332;2024-03-08T09:12:02;99619.34;;;4.89;82.23
64675;BME280;51090;51.512;11.332;2024-03-08T09:14:28;99614.47;;;4.94;82.35
64675;BME280;51090;51.512;11.332;2024-03-08T09:16:55;99607.94;;;4.98;81.98
64675;BME280;51090;51.512;11.332;2024-03-08T09:19:21;99613.59;;;5.03;81.70
64675;BME280;51090;51.512;11.332;2024-03-08T09:21:51;99609.41;;;5.10;81.96
64675;BME280;51090;51.512;11.332;2024-03-08T09:24:17;99608.28;;;5.13;81.41
64675;BME280;51090;51.512;11.332;2024-03-08T09:26:43;99608.84;;;5.16;81.04
64675;BME280;51090;51.512;11.332;2024-03-08T09:29:09;99598.72;;;5.21;81.60
64675;BME280;51090;51.512;11.332;2024-03-08T09:31:37;99598.81;;;5.30;81.75
64675;BME280;51090;51.512;11.332;2024-03-08T09:34:06;99601.84;;;5.35;80.97
64675;BME280;51090;51.512;11.332;2024-03-08T09:36:34;99590.72;;;5.41;80.98
64675;BME280;51090;51.512;11.332;2024-03-08T09:39:00;99587.66;;;5.45;81.34
64675;BME280;51090;51.512;11.332;2024-03-08T09:41:26;99587.03;;;5.52;81.20
64675;BME280;51090;51.512;11.332;2024-03-08T09:43:53;99588.41;;;5.56;80.61
64675;BME280;51090;51.512;11.332;2024-03-08T09:46:22;99587.66;;;5.63;81.00
64675;BME280;51090;51.512;11.332;2024-03-08T09:48:49;99587.34;;;5.66;80.11
64675;BME280;51090;51.512;11.332;2024-03-08T09:51:15;99586.91;;;5.71;79.95
64675;BME280;51090;51.512;11.332;2024-03-08T09:53:42;99579.53;;;5.75;79.93
64675;BME280;51090;51.512;11.332;2024-03-08T09:56:08;99574.66;;;5.80;80.38
64675;BME280;51090;51.512;11.332;2024-03-08T09:58:34;99571.25;;;5.87;80.41
64675;BME280;51090;51.512;11.332;2024-03-08T10:01:00;99557.25;;;5.97;80.68
64675;BME280;51090;51.512;11.332;2024-03-08T10:03:30;99561.56;;;6.06;79.83
64675;BME280;51090;51.512;11.332;2024-03-08T10:05:58;99554.59;;;6.15;80.15
64675;BME280;51090;51.512;11.332;2024-03-08T10:08:28;99556.09;;;6.17;78.86
64675;BME280;51090;51.512;11.332;2024-03-08T10:10:55;99553.63;;;6.24;79.35
64675;BME280;51090;51.512;11.332;2024-03-08T10:13:25;99554.19;;;6.27;78.83
64675;BME280;51090;51.512;11.332;2024-03-08T10:15:56;99548.44;;;6.32;79.05
64675;BME280;51090;51.512;11.332;2024-03-08T10:18:22;99544.50;;;6.36;78.18
64675;BME280;51090;51.512;11.332;2024-03-08T10:21:14;99542.41;;;6.40;77.07
64675;BME280;51090;51.512;11.332;2024-03-08T10:23:42;99536.66;;;6.44;78.04
64675;BME280;51090;51.512;11.332;2024-03-08T10:26:16;99538.16;;;6.47;77.43
64675;BME280;51090;51.512;11.332;2024-03-08T10:28:44;99530.78;;;6.50;77.69
64675;BME280;51090;51.512;11.332;2024-03-08T10:31:10;99521.41;;;6.56;78.44
64675;BME280;51090;51.512;11.332;2024-03-08T10:33:37;99523.72;;;6.59;78.11
64675;BME280;51090;51.512;11.332;2024-03-08T10:36:07;99522.28;;;6.65;78.26
64675;BME280;51090;51.512;11.332;2024-03-08T10:38:36;99519.03;;;6.71;78.13
64675;BME280;51090;51.512;11.332;2024-03-08T10:41:04;99514.09;;;6.76;77.88
64675;BME280;51090;51.512;11.332;2024-03-08T10:43:36;99523.00;;;6.83;77.33
64675;BME280;51090;51.512;11.332;2024-03-08T10:46:27;99516.59;;;6.86;76.78
64675;BME280;51090;51.512;11.332;2024-03-08T10:48:57;99517.47;;;6.94;77.77
64675;BME280;51090;51.512;11.332;2024-03-08T10:51:25;99514.38;;;6.99;76.62
64675;BME280;51090;51.512;11.332;2024-03-08T10:53:52;99499.84;;;7.03;76.90
64675;BME280;51090;51.512;11.332;2024-03-08T10:56:20;99509.09;;;7.07;76.60
64675;BME280;51090;51.512;11.332;2024-03-08T10:58:46;99492.63;;;7.13;77.14
64675;BME280;51090;51.512;11.332;2024-03-08T11:01:13;99492.97;;;7.18;76.93
64675;BME280;51090;51.512;11.332;2024-03-08T11:03:46;99488.22;;;7.22;76.22
64675;BME280;51090;51.512;11.332;2024-03-08T11:06:18;99490.19;;;7.28;76.76
64675;BME280;51090;51.512;11.332;2024-03-08T11:08:47;99489.72;;;7.33;76.63
64675;BME280;51090;51.512;11.332;2024-03-08T11:11:26;99493.31;;;7.32;76.06
64675;BME280;51090;51.512;11.332;2024-03-08T11:13:53;99487.75;;;7.35;76.05
64675;BME280;51090;51.512;11.332;2024-03-08T11:21:44;99474.56;;;7.51;77.04
64675;BME280;51090;51.512;11.332;2024-03-08T11:24:14;99468.78;;;7.56;75.87
64675;BME280;51090;51.512;11.332;2024-03-08T11:26:44;99468.78;;;7.56;76.43
64675;BME280;51090;51.512;11.332;2024-03-08T11:32:07;99461.03;;;7.71;75.36
64675;BME280;51090;51.512;11.332;2024-03-08T11:34:33;99464.00;;;7.76;75.67
64675;BME280;51090;51.512;11.332;2024-03-08T11:37:00;99456.91;;;7.84;76.35
64675;BME280;51090;51.512;11.332;2024-03-08T11:39:26;99455.25;;;7.92;75.97
64675;BME280;51090;51.512;11.332;2024-03-08T11:41:54;99447.66;;;7.97;75.68
64675;BME280;51090;51.512;11.332;2024-03-08T11:44:21;99430.31;;;7.94;75.74
64675;BME280;51090;51.512;11.332;2024-03-08T11:46:47;99442.50;;;8.03;74.67
64675;BME280;51090;51.512;11.332;2024-03-08T11:49:14;99451.25;;;8.12;75.70
64675;BME280;51090;51.512;11.332;2024-03-08T11:51:41;99438.53;;;8.16;75.25
64675;BME280;51090;51.512;11.332;2024-03-08T11:54:12;99432.72;;;8.20;74.41
64675;BME280;51090;51.512;11.332;2024-03-08T11:56:52;99427.56;;;8.27;75.01
64675;BME280;51090;51.512;11.332;2024-03-08T11:59:19;99428.44;;;8.19;73.68
64675;BME280;51090;51.512;11.332;2024-03-08T12:02:01;99414.59;;;8.17;72.58
64675;BME280;51090;51.512;11.332;2024-03-08T12:04:28;99415.59;;;8.08;71.87
64675;BME280;51090;51.512;11.332;2024-03-08T12:06:54;99411.13;;;8.08;73.03
64675;BME280;51090;51.512;11.332;2024-03-08T12:09:26;99406.34;;;8.12;73.24
64675;BME280;51090;51.512;11.332;2024-03-08T12:11:58;99404.34;;;8.14;73.02
64675;BME280;51090;51.512;11.332;2024-03-08T12:14:25;99402.00;;;8.19;73.74
64675;BME280;51090;51.512;11.332;2024-03-08T12:16:51;99398.03;;;8.23;72.97
64675;BME280;51090;51.512;11.332;2024-03-08T12:19:18;99393.22;;;8.27;73.32
64675;BME280;51090;51.512;11.332;2024-03-08T12:21:44;99400.50;;;8.33;73.65
64675;BME280;51090;51.512;11.332;2024-03-08T12:24:16;99398.50;;;8.35;73.48
64675;BME280;51090;51.512;11.332;2024-03-08T12:26:45;99394.19;;;8.42;73.75
64675;BME280;51090;51.512;11.332;2024-03-08T12:31:50;99378.94;;;8.53;73.48
64675;BME280;51090;51.512;11.332;2024-03-08T12:34:17;99373.34;;;8.56;73.35
64675;BME280;51090;51.512;11.332;2024-03-08T12:36:48;99383.06;;;8.63;73.38
64675;BME280;51090;51.512;11.332;2024-03-08T12:39:20;99384.19;;;8.69;72.66
64675;BME280;51090;51.512;11.332;2024-03-08T12:41:56;99369.78;;;8.71;72.38
64675;BME280;51090;51.512;11.332;2024-03-08T12:44:25;99373.94;;;8.66;71.16
64675;BME280;51090;51.512;11.332;2024-03-08T12:46:52;99367.50;;;8.68;71.47
64675;BME280;51090;51.512;11.332;2024-03-08T12:49:20;99357.22;;;8.74;72.45
64675;BME280;51090;51.512;11.332;2024-03-08T12:51:48;99356.66;;;8.78;72.63
64675;BME280;51090;51.512;11.332;2024-03-08T12:54:14;99344.75;;;8.82;72.51
64675;BME280;51090;51.512;11.332;2024-03-08T12:56:40;99343.59;;;8.85;71.36
64675;BME280;51090;51.512;11.332;2024-03-08T12:59:08;99333.00;;;8.85;71.70
64675;BME280;51090;51.512;11.332;2024-03-08T13:01:35;99344.88;;;8.89;71.86
64675;BME280;51090;51.512;11.332;2024-03-08T13:04:03;99346.16;;;8.93;72.11
64675;BME280;51090;51.512;11.332;2024-03-08T13:06:30;99322.59;;;8.83;70.75
64675;BME280;51090;51.512;11.332;2024-03-08T13:08:57;99330.28;;;8.93;70.59
64675;BME280;51090;51.512;11.332;2024-03-08T13:11:31;99339.81;;;9.02;71.68